createdAt,value
2022-12-25T00:01:32.222Z,73.91
2022-12-25T00:04:00.896Z,74.62
2022-12-25T00:06:30.643Z,74.29
2022-12-25T00:09:00.185Z,73.98
2022-12-25T00:11:28.529Z,74.63
2022-12-25T00:13:56.886Z,74.69
2022-12-25T00:16:27.451Z,75.08
2022-12-25T00:18:59.069Z,74.69
2022-12-25T00:21:27.920Z,74.77
2022-12-25T00:23:59.302Z,74.95
2022-12-25T00:26:29.079Z,75.50
2022-12-25T00:28:59.250Z,75.36
2022-12-25T00:31:27.770Z,74.95
2022-12-25T00:33:56.222Z,74.86
2022-12-25T00:36:24.904Z,74.62
2022-12-25T00:38:53.213Z,74.56
2022-12-25T00:41:38.713Z,74.67
2022-12-25T00:44:08.661Z,74.12
2022-12-25T00:46:39.493Z,74.20
2022-12-25T00:49:08.339Z,74.62
2022-12-25T00:51:36.989Z,74.52
2022-12-25T00:54:11.397Z,74.64
2022-12-25T00:56:41.171Z,74.76
2022-12-25T00:59:11.721Z,75.16
2022-12-25T01:01:40.923Z,75.03
2022-12-25T01:04:11.885Z,74.26
2022-12-25T01:06:43.058Z,74.10
2022-12-25T01:09:31.067Z,74.48
2022-12-25T01:12:00.775Z,74.49
2022-12-25T01:14:29.012Z,74.62
2022-12-25T01:16:57.436Z,74.74
2022-12-25T01:19:27.924Z,74.68
2022-12-25T01:22:03.410Z,74.51
2022-12-25T01:24:39.375Z,75.43
2022-12-25T01:27:19.432Z,75.13
2022-12-25T01:29:50.913Z,75.06
2022-12-25T01:32:21.131Z,74.46
2022-12-25T01:35:12.171Z,74.02
2022-12-25T01:37:42.920Z,74.37
2022-12-25T01:40:20.233Z,74.35
2022-12-25T01:43:06.122Z,74.52
2022-12-25T01:50:23.736Z,74.92
2022-12-25T01:52:52.899Z,74.73
2022-12-25T01:55:21.390Z,74.83
2022-12-25T01:57:51.544Z,75.25
2022-12-25T02:00:21.142Z,75.06
2022-12-25T02:02:51.202Z,75.01
2022-12-25T02:05:27.284Z,74.80
2022-12-25T02:07:56.936Z,75.15
2022-12-25T02:10:25.307Z,75.23
2022-12-25T02:12:55.278Z,74.98
2022-12-25T02:15:28.753Z,75.22
2022-12-25T02:18:04.191Z,75.39
2022-12-25T02:21:01.097Z,75.12
2022-12-25T02:23:56.697Z,75.12
2022-12-25T02:26:53.167Z,75.06
2022-12-25T02:29:30.643Z,74.88
2022-12-25T02:32:03.798Z,75.28
2022-12-25T02:34:38.588Z,75.40
2022-12-25T02:37:14.172Z,75.06
2022-12-25T02:39:59.873Z,75.03
2022-12-25T02:43:13.677Z,75.03
2022-12-25T02:46:14.400Z,75.02
2022-12-25T02:49:04.284Z,75.44
2022-12-25T02:51:53.298Z,75.50
2022-12-25T02:54:44.010Z,75.48
2022-12-25T02:57:33.510Z,75.04
2022-12-25T03:00:22.674Z,74.94
2022-12-25T03:03:12.203Z,75.08
2022-12-25T03:06:00.542Z,75.03
2022-12-25T03:08:35.444Z,74.83
2022-12-25T03:11:23.128Z,74.48
2022-12-25T03:13:56.237Z,74.06
2022-12-25T03:16:47.217Z,74.19
2022-12-25T03:19:31.501Z,74.31
2022-12-25T03:22:17.771Z,74.79
2022-12-25T03:25:04.162Z,75.01
2022-12-25T03:27:36.017Z,75.40
2022-12-25T03:30:23.281Z,75.55
2022-12-25T03:32:58.920Z,75.75
2022-12-25T03:35:44.370Z,75.45
2022-12-25T03:38:46.428Z,75.10
2022-12-25T03:41:50.933Z,76.00
2022-12-25T03:44:56.702Z,75.73
2022-12-25T03:47:49.062Z,75.71
2022-12-25T03:50:40.278Z,75.55
2022-12-25T03:53:32.374Z,75.32
2022-12-25T03:56:18.995Z,75.41
2022-12-25T03:59:10.546Z,75.06
2022-12-25T04:01:56.776Z,75.48
2022-12-25T04:04:42.653Z,74.97
2022-12-25T04:07:28.442Z,75.40
2022-12-25T04:10:15.933Z,76.25
2022-12-25T04:13:01.943Z,75.84
2022-12-25T04:15:47.945Z,75.49
2022-12-25T04:18:34.052Z,75.45
2022-12-25T04:21:19.777Z,75.82
2022-12-25T04:24:05.604Z,75.58
2022-12-25T04:26:53.030Z,75.37
2022-12-25T04:29:38.831Z,75.56
2022-12-25T04:32:24.737Z,76.05
2022-12-25T04:35:10.628Z,76.89
2022-12-25T04:37:39.036Z,76.71
2022-12-25T04:40:08.566Z,76.20
2022-12-25T04:42:38.375Z,76.23
2022-12-25T04:45:07.564Z,76.75
2022-12-25T04:47:35.947Z,76.64
2022-12-25T04:50:04.907Z,76.82
2022-12-25T04:52:36.926Z,76.72
2022-12-25T04:55:06.542Z,76.71
2022-12-25T04:57:35.138Z,77.10
2022-12-25T05:00:06.269Z,76.90
2022-12-25T05:02:34.971Z,76.83
2022-12-25T05:05:03.479Z,76.40
2022-12-25T05:07:31.896Z,76.63
2022-12-25T05:10:00.316Z,76.55
2022-12-25T05:12:28.752Z,76.49
2022-12-25T05:14:57.027Z,77.05
2022-12-25T05:17:26.918Z,76.80
2022-12-25T05:19:55.298Z,76.78
2022-12-25T05:22:23.670Z,76.59
2022-12-25T05:24:52.007Z,75.92
2022-12-25T05:27:20.461Z,76.39
2022-12-25T05:29:49.810Z,76.10
2022-12-25T05:32:18.326Z,75.47
2022-12-25T05:34:48.227Z,76.35
2022-12-25T05:37:16.545Z,76.47
2022-12-25T05:39:44.928Z,76.46
2022-12-25T05:42:13.375Z,77.00
2022-12-25T05:44:41.748Z,76.54
2022-12-25T05:47:10.265Z,77.12
2022-12-25T05:49:38.704Z,76.69
2022-12-25T05:52:08.523Z,77.08
2022-12-25T05:54:37.049Z,77.20
2022-12-25T05:57:05.599Z,77.07
2022-12-25T05:59:35.079Z,75.92
2022-12-25T06:02:03.520Z,75.85
2022-12-25T06:04:31.925Z,77.07
2022-12-25T06:07:00.366Z,77.28
2022-12-25T06:09:30.172Z,77.18
2022-12-25T06:11:58.519Z,77.89
2022-12-25T06:14:26.958Z,77.46
2022-12-25T06:16:55.447Z,77.65
2022-12-25T06:19:24.075Z,78.36
2022-12-25T06:21:54.589Z,78.88
2022-12-25T06:24:24.436Z,79.20
2022-12-25T06:26:54.224Z,79.08
2022-12-25T06:29:23.668Z,79.51
2022-12-25T06:31:57.307Z,79.82
2022-12-25T06:34:26.042Z,79.58
2022-12-25T06:36:54.831Z,79.99
2022-12-25T06:39:25.612Z,80.38
2022-12-25T06:41:55.952Z,80.29
2022-12-25T06:44:24.363Z,80.54
2022-12-25T06:46:54.121Z,80.30
2022-12-25T06:49:23.750Z,80.32
2022-12-25T06:51:52.149Z,80.45
2022-12-25T06:54:20.593Z,80.84
2022-12-25T06:56:51.251Z,80.34
2022-12-25T06:59:21.295Z,81.25
2022-12-25T07:01:51.823Z,81.04
2022-12-25T07:04:25.156Z,81.56
2022-12-25T07:06:53.783Z,82.49
2022-12-25T07:09:22.195Z,83.81
2022-12-25T07:11:50.573Z,83.01
2022-12-25T07:14:24.238Z,82.71
2022-12-25T07:16:53.512Z,83.20
2022-12-25T07:19:21.865Z,82.98
2022-12-25T07:21:50.271Z,83.50
2022-12-25T07:24:20.738Z,83.75
2022-12-25T07:26:49.216Z,84.12
2022-12-25T07:29:17.820Z,83.94
2022-12-25T07:31:48.039Z,84.78
2022-12-25T07:34:18.532Z,84.47
2022-12-25T07:36:46.991Z,84.66
2022-12-25T07:39:16.424Z,84.36
2022-12-25T07:41:45.113Z,84.83
2022-12-25T07:44:16.782Z,85.37
2022-12-25T07:46:45.341Z,85.21
2022-12-25T07:49:15.397Z,84.74
2022-12-25T07:51:43.810Z,86.03
2022-12-25T07:54:12.134Z,85.56
2022-12-25T07:56:40.557Z,85.84
2022-12-25T07:59:08.948Z,85.87
2022-12-25T08:01:37.395Z,86.27
2022-12-25T08:04:05.979Z,86.13
2022-12-25T08:06:37.289Z,85.96
2022-12-25T08:09:08.280Z,86.56
2022-12-25T08:11:37.475Z,86.80
2022-12-25T08:14:07.954Z,86.04
2022-12-25T08:16:39.796Z,86.49
2022-12-25T08:19:08.574Z,86.85
2022-12-25T08:21:38.697Z,86.51
2022-12-25T08:24:07.736Z,87.10
2022-12-25T08:26:36.101Z,87.00
2022-12-25T08:29:04.840Z,87.73
2022-12-25T08:31:37.274Z,88.57
2022-12-25T08:34:10.059Z,88.75
2022-12-25T08:36:40.028Z,88.46
2022-12-25T08:39:08.793Z,88.57
2022-12-25T08:41:37.502Z,88.53
2022-12-25T08:44:06.449Z,88.41
2022-12-25T08:46:34.942Z,88.87
2022-12-25T08:49:04.423Z,88.64
2022-12-25T08:51:33.201Z,89.33
2022-12-25T08:54:03.086Z,88.93
2022-12-25T08:56:31.431Z,88.75
2022-12-25T08:58:59.831Z,89.04
2022-12-25T09:01:28.324Z,89.15
2022-12-25T09:03:56.720Z,88.94
2022-12-25T09:06:25.062Z,89.26
2022-12-25T09:08:53.436Z,88.85
2022-12-25T09:11:24.254Z,88.81
2022-12-25T09:13:52.660Z,88.63
2022-12-25T09:16:22.679Z,88.62
2022-12-25T09:18:51.793Z,88.90
2022-12-25T09:21:20.663Z,89.28
2022-12-25T09:23:49.309Z,89.07
2022-12-25T09:26:18.998Z,89.10
2022-12-25T09:28:52.398Z,89.46
2022-12-25T09:31:22.734Z,89.32
2022-12-25T09:33:51.910Z,89.32
2022-12-25T09:36:23.438Z,89.06
2022-12-25T09:38:52.424Z,89.23
2022-12-25T09:41:30.047Z,88.94
2022-12-25T09:44:04.236Z,88.85
2022-12-25T09:46:41.081Z,88.82
2022-12-25T09:49:19.731Z,88.64
2022-12-25T09:51:53.432Z,88.64
2022-12-25T09:54:27.872Z,88.51
2022-12-25T09:56:56.470Z,88.61
2022-12-25T09:59:28.167Z,88.74
2022-12-25T10:02:14.563Z,88.72
2022-12-25T10:05:00.815Z,88.50
2022-12-25T10:07:41.443Z,88.40
2022-12-25T10:10:24.398Z,88.33
2022-12-25T10:13:03.523Z,88.39
2022-12-25T10:15:45.057Z,88.35
2022-12-25T10:18:44.793Z,88.08
2022-12-25T10:21:16.135Z,88.32
2022-12-25T10:23:49.426Z,88.34
2022-12-25T10:26:20.924Z,88.09
2022-12-25T10:28:56.274Z,87.71
2022-12-25T10:31:28.917Z,87.72
2022-12-25T10:33:58.105Z,87.82
2022-12-25T10:36:28.149Z,87.54
2022-12-25T10:38:57.288Z,87.66
2022-12-25T10:41:44.505Z,87.36
2022-12-25T10:44:20.511Z,87.33
2022-12-25T10:46:52.828Z,87.49
2022-12-25T10:49:23.041Z,87.51
2022-12-25T10:51:52.335Z,87.51
2022-12-25T10:54:23.492Z,87.23
2022-12-25T10:56:56.622Z,87.21
2022-12-25T10:59:26.571Z,87.21
2022-12-25T11:01:57.540Z,87.23
2022-12-25T11:04:28.911Z,86.96
2022-12-25T11:06:59.934Z,86.85
2022-12-25T11:09:28.791Z,86.98
2022-12-25T11:11:57.387Z,86.85
2022-12-25T11:14:28.187Z,86.82
2022-12-25T11:17:08.965Z,86.82
2022-12-25T11:19:37.495Z,86.93
2022-12-25T11:22:06.572Z,86.95
2022-12-25T11:24:35.408Z,86.36
2022-12-25T11:27:07.640Z,86.21
2022-12-25T11:29:43.688Z,86.20
2022-12-25T11:32:20.495Z,86.10
2022-12-25T11:34:50.929Z,86.26
2022-12-25T11:37:25.241Z,85.46
2022-12-25T11:39:53.605Z,85.57
2022-12-25T11:42:26.470Z,85.67
2022-12-25T11:45:00.603Z,85.06
2022-12-25T11:47:36.944Z,85.29
2022-12-25T11:50:09.316Z,85.16
2022-12-25T11:52:40.213Z,85.18
2022-12-25T11:55:18.344Z,84.90
2022-12-25T11:57:52.716Z,84.70
2022-12-25T12:00:22.511Z,84.71
2022-12-25T12:02:59.052Z,84.57
2022-12-25T12:05:34.778Z,84.81
2022-12-25T12:08:06.338Z,84.70
2022-12-25T12:10:44.051Z,84.49
2022-12-25T12:13:26.460Z,84.40
2022-12-25T12:15:54.980Z,84.13
2022-12-25T12:18:33.234Z,84.23
2022-12-25T12:21:08.033Z,84.07
2022-12-25T12:23:49.113Z,84.10
2022-12-25T12:26:21.438Z,83.92
2022-12-25T12:28:52.492Z,84.09
2022-12-25T12:31:21.286Z,83.97
2022-12-25T12:33:55.775Z,83.97
2022-12-25T12:36:35.584Z,84.05
2022-12-25T12:39:06.633Z,83.98
2022-12-25T12:41:47.508Z,83.86
2022-12-25T12:44:18.539Z,83.88
2022-12-25T12:46:55.406Z,83.58
2022-12-25T12:49:27.038Z,83.30
2022-12-25T12:52:05.994Z,82.96
2022-12-25T12:54:36.789Z,83.41
2022-12-25T12:57:07.524Z,83.22
2022-12-25T12:59:41.127Z,82.77
2022-12-25T13:02:30.123Z,82.57
2022-12-25T13:05:05.315Z,82.35
2022-12-25T13:07:52.137Z,82.68
2022-12-25T13:10:28.421Z,82.40
2022-12-25T13:13:00.711Z,82.63
2022-12-25T13:15:34.978Z,82.18
2022-12-25T13:18:05.666Z,82.47
2022-12-25T13:20:43.113Z,81.91
2022-12-25T13:23:16.613Z,81.91
2022-12-25T13:25:53.742Z,81.64
2022-12-25T13:28:29.795Z,81.62
2022-12-25T13:31:07.823Z,81.72
2022-12-25T13:33:36.504Z,81.50
2022-12-25T13:36:11.162Z,81.89
2022-12-25T13:38:44.457Z,81.84
2022-12-25T13:41:30.540Z,81.42
2022-12-25T13:44:00.077Z,81.70
2022-12-25T13:46:28.873Z,81.20
2022-12-25T13:49:00.487Z,81.50
2022-12-25T13:51:30.965Z,81.34
2022-12-25T13:54:06.597Z,81.05
2022-12-25T13:56:36.510Z,81.02
2022-12-25T13:59:05.653Z,81.03
2022-12-25T14:01:34.173Z,80.90
2022-12-25T14:04:05.553Z,80.67
2022-12-25T14:06:35.928Z,80.45
2022-12-25T14:09:05.761Z,80.63
2022-12-25T14:11:35.129Z,80.95
2022-12-25T14:14:09.994Z,80.74
2022-12-25T14:16:39.174Z,80.47
2022-12-25T14:19:25.591Z,80.81
2022-12-25T14:22:01.484Z,80.57
2022-12-25T14:24:32.095Z,80.73
2022-12-25T14:27:03.212Z,80.45
2022-12-25T14:29:37.038Z,80.29
2022-12-25T14:32:07.832Z,80.46
2022-12-25T14:34:36.938Z,80.44
2022-12-25T14:37:11.112Z,80.42
2022-12-25T14:39:40.152Z,80.61
2022-12-25T14:42:21.665Z,79.85
2022-12-25T14:45:03.269Z,79.99
2022-12-25T14:47:33.354Z,80.17
2022-12-25T14:50:01.697Z,80.10
2022-12-25T14:52:39.260Z,80.11
2022-12-25T14:55:18.193Z,80.12
2022-12-25T14:57:50.045Z,79.92
2022-12-25T15:00:27.193Z,80.11
2022-12-25T15:02:58.361Z,80.20
2022-12-25T15:05:33.013Z,80.48
2022-12-25T15:08:07.192Z,80.56
2022-12-25T15:13:25.398Z,80.16
2022-12-25T15:16:00.629Z,80.43
2022-12-25T15:18:34.944Z,80.46
2022-12-25T15:21:03.842Z,80.55
2022-12-25T15:23:34.229Z,80.22
2022-12-25T15:26:03.666Z,80.14
2022-12-25T15:28:32.010Z,80.70
2022-12-25T15:31:00.568Z,80.81
2022-12-25T15:33:29.036Z,80.59
2022-12-25T15:35:57.435Z,80.48
2022-12-25T15:38:25.788Z,80.48
2022-12-25T15:40:55.624Z,80.46
2022-12-25T15:43:40.311Z,80.40
2022-12-25T15:46:10.653Z,80.05
2022-12-25T15:48:39.082Z,80.67
2022-12-25T15:51:07.507Z,80.50
2022-12-25T15:53:35.788Z,80.15
2022-12-25T15:56:06.047Z,80.05
2022-12-25T15:58:34.509Z,80.37
2022-12-25T16:01:04.259Z,79.76
2022-12-25T16:03:32.857Z,80.25
2022-12-25T16:06:01.280Z,79.95
2022-12-25T16:08:29.597Z,79.93
2022-12-25T16:10:58.010Z,79.82
2022-12-25T16:13:27.798Z,80.02
2022-12-25T16:15:56.201Z,79.50
2022-12-25T16:18:24.622Z,79.34
2022-12-25T16:20:53.688Z,79.46
2022-12-25T16:23:22.587Z,79.64
2022-12-25T16:25:51.107Z,79.27
2022-12-25T16:28:19.544Z,79.68
2022-12-25T16:30:49.465Z,79.52
2022-12-25T16:33:17.970Z,79.54
2022-12-25T16:35:47.275Z,79.55
2022-12-25T16:38:15.693Z,79.67
2022-12-25T16:40:44.967Z,79.67
2022-12-25T16:43:16.349Z,79.73
2022-12-25T16:45:50.202Z,80.01
2022-12-25T16:48:18.515Z,80.10
2022-12-25T16:50:46.898Z,79.95
2022-12-25T16:53:15.152Z,79.59
2022-12-25T16:55:44.565Z,79.33
2022-12-25T16:58:13.445Z,79.32
2022-12-25T17:00:47.347Z,79.64
2022-12-25T17:03:19.173Z,79.30
2022-12-25T17:05:47.572Z,79.12
2022-12-25T17:08:20.563Z,79.56
2022-12-25T17:10:56.148Z,79.55
2022-12-25T17:13:24.835Z,79.27
2022-12-25T17:15:53.210Z,79.10
2022-12-25T17:18:23.157Z,79.40
2022-12-25T17:20:52.491Z,79.19
2022-12-25T17:23:20.991Z,79.27
2022-12-25T17:25:49.388Z,79.74
2022-12-25T17:28:17.800Z,79.75
2022-12-25T17:30:46.104Z,79.25
2022-12-25T17:33:14.402Z,79.40
2022-12-25T17:35:44.197Z,79.67
2022-12-25T17:38:13.548Z,79.76
2022-12-25T17:40:41.931Z,79.95
2022-12-25T17:43:14.309Z,79.84
2022-12-25T17:45:47.330Z,79.80
2022-12-25T17:48:15.658Z,80.28
2022-12-25T17:50:45.543Z,80.59
2022-12-25T17:53:14.336Z,80.58
2022-12-25T17:55:43.199Z,80.73
2022-12-25T17:58:13.549Z,81.12
2022-12-25T18:00:41.937Z,80.78
2022-12-25T18:03:12.012Z,81.13
2022-12-25T18:05:40.730Z,81.09
2022-12-25T18:08:11.415Z,81.00
2022-12-25T18:10:41.281Z,80.86
2022-12-25T18:13:10.519Z,80.89
2022-12-25T18:15:39.936Z,80.81
2022-12-25T18:18:09.972Z,80.77
2022-12-25T18:20:40.494Z,80.74
2022-12-25T18:23:11.245Z,80.63
2022-12-25T18:25:42.842Z,80.92
2022-12-25T18:28:12.336Z,80.99
2022-12-25T18:30:41.597Z,80.59
2022-12-25T18:33:11.204Z,80.72
2022-12-25T18:35:41.718Z,80.71
2022-12-25T18:38:12.720Z,80.62
2022-12-25T18:40:43.099Z,80.52
2022-12-25T18:43:12.909Z,80.67
2022-12-25T18:45:41.541Z,80.88
2022-12-25T18:48:12.319Z,80.82
2022-12-25T18:50:41.664Z,81.08
2022-12-25T18:53:12.413Z,80.92
2022-12-25T18:55:41.744Z,81.16
2022-12-25T18:58:10.452Z,80.97
2022-12-25T19:00:39.520Z,81.59
2022-12-25T19:03:10.470Z,81.33
2022-12-25T19:05:40.745Z,81.10
2022-12-25T19:08:12.492Z,80.95
2022-12-25T19:10:41.549Z,81.09
2022-12-25T19:13:10.747Z,80.80
2022-12-25T19:15:42.683Z,80.35
2022-12-25T19:18:12.471Z,80.70
2022-12-25T19:20:41.605Z,80.41
2022-12-25T19:23:12.093Z,80.67
2022-12-25T19:25:41.107Z,80.13
2022-12-25T19:28:11.022Z,80.40
2022-12-25T19:30:39.975Z,80.18
2022-12-25T19:33:12.416Z,79.90
2022-12-25T19:35:46.895Z,80.26
2022-12-25T19:38:16.844Z,80.29
2022-12-25T19:41:00.600Z,79.81
2022-12-25T19:43:30.610Z,80.25
2022-12-25T19:46:01.533Z,80.01
2022-12-25T19:48:31.211Z,79.28
2022-12-25T19:51:00.188Z,79.31
2022-12-25T19:53:30.990Z,79.41
2022-12-25T19:56:02.865Z,79.66
2022-12-25T19:58:31.699Z,79.60
2022-12-25T20:01:00.691Z,79.11
2022-12-25T20:03:29.289Z,79.41
2022-12-25T20:05:57.914Z,79.63
2022-12-25T20:08:26.475Z,79.28
2022-12-25T20:10:56.393Z,79.18
2022-12-25T20:13:25.016Z,79.50
2022-12-25T20:15:53.425Z,79.14
2022-12-25T20:18:22.179Z,78.83
2022-12-25T20:20:50.551Z,79.11
2022-12-25T20:23:18.955Z,79.23
2022-12-25T20:25:47.325Z,78.85
2022-12-25T20:28:17.114Z,78.55
2022-12-25T20:30:45.550Z,79.06
2022-12-25T20:33:14.128Z,78.83
2022-12-25T20:35:46.306Z,78.61
2022-12-25T20:38:15.294Z,78.79
2022-12-25T20:41:24.382Z,78.67
2022-12-25T20:43:37.749Z,78.34
2022-12-25T20:46:10.331Z,78.92
2022-12-25T20:48:38.790Z,79.07
2022-12-25T20:51:09.400Z,79.03
2022-12-25T20:53:38.407Z,78.84
2022-12-25T20:56:07.221Z,78.75
2022-12-25T20:58:37.457Z,78.72
2022-12-25T21:01:07.683Z,79.19
2022-12-25T21:03:36.547Z,79.04
2022-12-25T21:06:05.107Z,79.26
2022-12-25T21:08:33.807Z,79.37
2022-12-25T21:11:02.749Z,78.83
2022-12-25T21:13:33.223Z,78.65
2022-12-25T21:16:06.721Z,78.68
2022-12-25T21:18:35.176Z,78.98
2022-12-25T21:21:07.822Z,78.80
2022-12-25T21:23:37.753Z,78.58
2022-12-25T21:26:14.158Z,79.00
2022-12-25T21:28:42.790Z,78.91
2022-12-25T21:31:12.681Z,78.83
2022-12-25T21:33:52.237Z,78.85
2022-12-25T21:36:23.344Z,78.53
2022-12-25T21:38:56.651Z,78.68
2022-12-25T21:41:25.512Z,78.23
2022-12-25T21:43:55.301Z,78.48
2022-12-25T21:46:26.733Z,78.23
2022-12-25T21:48:55.656Z,78.37
2022-12-25T21:51:44.067Z,78.18
2022-12-25T21:54:13.652Z,78.87
2022-12-25T21:56:45.426Z,78.29
2022-12-25T21:59:16.031Z,78.53
2022-12-25T22:01:46.817Z,78.61
2022-12-25T22:04:17.217Z,78.17
2022-12-25T22:07:03.712Z,78.73
2022-12-25T22:09:32.317Z,78.64
2022-12-25T22:12:18.548Z,78.25
2022-12-25T22:14:55.858Z,78.41
2022-12-25T22:17:45.794Z,78.48
2022-12-25T22:20:16.420Z,78.76
2022-12-25T22:22:45.553Z,78.03
2022-12-25T22:25:15.010Z,78.05
2022-12-25T22:27:44.715Z,78.19
2022-12-25T22:30:15.308Z,78.16
2022-12-25T22:32:46.526Z,78.06
2022-12-25T22:35:15.706Z,78.15
2022-12-25T22:37:44.562Z,77.99
2022-12-25T22:40:15.914Z,78.01
2022-12-25T22:42:44.289Z,78.09
2022-12-25T22:45:13.164Z,77.67
2022-12-25T22:47:41.697Z,78.10
2022-12-25T22:50:14.765Z,78.16
2022-12-25T22:52:43.286Z,78.12
2022-12-25T22:55:12.146Z,78.10
2022-12-25T22:57:40.625Z,77.88
2022-12-25T23:00:10.160Z,77.67
2022-12-25T23:02:38.662Z,77.47
2022-12-25T23:05:08.189Z,77.74
2022-12-25T23:07:38.006Z,77.44
2022-12-25T23:10:07.735Z,77.46
2022-12-25T23:12:53.621Z,77.85
2022-12-25T23:15:22.229Z,77.66
2022-12-25T23:18:09.103Z,77.96
2022-12-25T23:20:55.923Z,77.82
2022-12-25T23:23:43.604Z,77.76
2022-12-25T23:26:12.692Z,77.94
2022-12-25T23:28:59.988Z,78.54
2022-12-25T23:31:31.906Z,77.81
2022-12-25T23:34:00.689Z,78.12
2022-12-25T23:36:29.400Z,78.17
2022-12-25T23:39:03.243Z,78.17
2022-12-25T23:41:37.338Z,77.98
2022-12-25T23:44:05.765Z,78.43
2022-12-25T23:46:34.223Z,78.02
2022-12-25T23:49:02.858Z,77.95
2022-12-25T23:51:31.721Z,78.18
2022-12-25T23:54:01.520Z,78.23
2022-12-25T23:56:29.939Z,78.15
2022-12-25T23:58:58.349Z,77.71
